createdAt,value
2019-05-05T00:00:45.182Z,78990.80
2019-05-05T00:03:44.499Z,78985.74
2019-05-05T00:06:14.670Z,78982.71
2019-05-05T00:08:45.830Z,78981.70
2019-05-05T00:11:35.162Z,78968.56
2019-05-05T00:14:10.963Z,78963.51
2019-05-05T00:17:02.191Z,78988.77
2019-05-05T00:19:33.421Z,78988.77
2019-05-05T00:22:04.536Z,78974.63
2019-05-05T00:24:35.065Z,78966.54
2019-05-05T00:27:04.449Z,78964.52
2019-05-05T00:29:34.738Z,78950.38
2019-05-05T00:32:05.501Z,78946.33
2019-05-05T00:34:36.545Z,78946.33
2019-05-05T00:37:06.151Z,78950.38
2019-05-05T00:39:35.419Z,78931.17
2019-05-05T00:42:06.034Z,78942.28
2019-05-05T00:44:37.133Z,78942.28
2019-05-05T00:47:37.661Z,78932.18
2019-05-05T00:50:08.684Z,78921.06
2019-05-05T00:52:39.317Z,78928.14
2019-05-05T00:55:08.954Z,78934.20
2019-05-05T00:57:40.050Z,78935.21
2019-05-05T01:00:18.097Z,78928.14
2019-05-05T01:02:49.755Z,78927.13
2019-05-05T01:05:44.839Z,78937.23
2019-05-05T01:08:17.897Z,78937.23
2019-05-05T01:10:47.166Z,78934.20
2019-05-05T01:13:16.537Z,78945.31
2019-05-05T01:15:45.812Z,78971.59
2019-05-05T01:18:15.322Z,78998.88
2019-05-05T01:20:44.984Z,79017.08
2019-05-05T01:23:15.837Z,79033.24
2019-05-05T01:25:48.632Z,79041.33
2019-05-05T01:28:16.484Z,79038.30
2019-05-05T01:30:50.355Z,79040.31
2019-05-05T01:33:37.819Z,79054.47
2019-05-05T01:36:07.276Z,79062.55
2019-05-05T01:38:58.338Z,79057.50
2019-05-05T01:41:34.824Z,79070.64
2019-05-05T01:44:04.992Z,79075.69
2019-05-05T01:46:35.287Z,79072.66
2019-05-05T01:49:05.552Z,79083.78
2019-05-05T01:51:36.162Z,79094.89
2019-05-05T01:54:06.732Z,79107.02
2019-05-05T01:56:36.422Z,79115.11
2019-05-05T01:59:07.282Z,79119.15
2019-05-05T02:01:36.871Z,79128.25
2019-05-05T02:04:06.220Z,79133.30
2019-05-05T02:06:35.549Z,79141.38
2019-05-05T02:09:05.602Z,79127.23
2019-05-05T02:11:35.389Z,79127.23
2019-05-05T02:14:05.238Z,79125.22
2019-05-05T02:16:34.894Z,79123.19
2019-05-05T02:19:05.160Z,79125.22
2019-05-05T02:21:35.497Z,79123.19
2019-05-05T02:24:05.517Z,79117.13
2019-05-05T02:26:35.183Z,79126.22
2019-05-05T02:29:31.617Z,79125.22
2019-05-05T02:32:18.533Z,79115.11
2019-05-05T02:34:56.607Z,79110.05
2019-05-05T02:37:25.980Z,79098.94
2019-05-05T02:39:58.870Z,79082.77
2019-05-05T02:42:27.851Z,79064.58
2019-05-05T02:44:59.504Z,79050.42
2019-05-05T02:47:50.897Z,79037.28
2019-05-05T02:50:24.944Z,79020.11
2019-05-05T02:52:53.602Z,79006.97
2019-05-05T02:55:24.087Z,79007.98
2019-05-05T02:57:55.045Z,78991.80
2019-05-05T03:00:43.738Z,78994.84
2019-05-05T03:03:13.750Z,78997.88
2019-05-05T03:05:43.543Z,78998.88
2019-05-05T03:08:13.911Z,78995.84
2019-05-05T03:10:44.328Z,79011.02
2019-05-05T03:13:14.171Z,79014.05
2019-05-05T03:15:52.276Z,79032.23
2019-05-05T03:18:22.200Z,79019.09
2019-05-05T03:21:02.347Z,79019.09
2019-05-05T03:23:24.037Z,79014.05
2019-05-05T03:25:54.541Z,79006.97
2019-05-05T03:28:26.737Z,78996.86
2019-05-05T03:30:56.184Z,78981.70
2019-05-05T03:33:25.651Z,78974.63
2019-05-05T03:35:55.159Z,78955.42
2019-05-05T03:38:24.839Z,78947.34
2019-05-05T03:40:56.547Z,78950.38
2019-05-05T03:43:30.068Z,78937.23
2019-05-05T03:46:01.759Z,78919.05
2019-05-05T03:48:31.513Z,78916.02
2019-05-05T03:51:00.966Z,78919.05
2019-05-05T03:53:30.970Z,78907.92
2019-05-05T03:56:00.743Z,78909.95
2019-05-05T03:58:30.309Z,78925.11
2019-05-05T04:01:59.554Z,78943.30
2019-05-05T04:04:33.601Z,78944.31
2019-05-05T04:07:04.782Z,78958.45
2019-05-05T04:09:34.653Z,78959.47
2019-05-05T04:12:04.567Z,78975.64
2019-05-05T04:14:34.933Z,78985.74
2019-05-05T04:17:17.865Z,78996.86
2019-05-05T04:19:49.869Z,79003.94
2019-05-05T04:22:19.787Z,79017.08
2019-05-05T04:24:49.692Z,79023.14
2019-05-05T04:27:18.939Z,79033.24
2019-05-05T04:29:48.904Z,79048.41
2019-05-05T04:32:18.177Z,79055.48
2019-05-05T04:34:47.407Z,79065.58
2019-05-05T04:37:16.770Z,79051.44
2019-05-05T04:39:46.316Z,79049.41
2019-05-05T04:42:15.902Z,79070.64
2019-05-05T04:44:45.548Z,79082.77
2019-05-05T04:47:20.958Z,79078.72
2019-05-05T04:50:18.040Z,79072.66
2019-05-05T04:52:46.932Z,79076.70
2019-05-05T04:55:16.177Z,79073.67
2019-05-05T04:57:45.779Z,79068.61
2019-05-05T05:00:15.024Z,79077.71
2019-05-05T05:02:59.217Z,79076.70
2019-05-05T05:05:47.778Z,79070.64
2019-05-05T05:08:17.139Z,79068.61
2019-05-05T05:10:46.371Z,79067.61
2019-05-05T05:13:15.681Z,79059.52
2019-05-05T05:15:45.254Z,79023.14
2019-05-05T05:18:16.874Z,79002.92
2019-05-05T05:20:48.044Z,78984.73
2019-05-05T05:23:18.692Z,78975.64
2019-05-05T05:25:50.356Z,78968.56
2019-05-05T05:28:20.037Z,78955.42
2019-05-05T05:30:49.797Z,78868.52
2019-05-05T05:33:19.031Z,78730.06
2019-05-05T05:35:48.684Z,78623.95
2019-05-05T05:38:18.287Z,78534.02
2019-05-05T05:40:57.528Z,78390.52
2019-05-05T05:43:40.237Z,78216.72
2019-05-05T05:46:25.793Z,78294.53
2019-05-05T05:49:24.140Z,78191.46
2019-05-05T05:51:53.888Z,78195.50
2019-05-05T05:54:23.550Z,78352.13
2019-05-05T05:56:53.804Z,78455.20
2019-05-05T05:59:24.698Z,78520.88
2019-05-05T06:02:08.352Z,78437.00
2019-05-05T06:04:27.005Z,78331.91
2019-05-05T06:06:56.264Z,78173.27
2019-05-05T06:09:25.829Z,77813.58
2019-05-05T06:11:55.494Z,77766.09
2019-05-05T06:14:24.786Z,77727.70
2019-05-05T06:16:54.123Z,77664.05
2019-05-05T06:19:24.642Z,77583.23
2019-05-05T06:21:55.809Z,77663.03
2019-05-05T06:24:27.228Z,77569.08
2019-05-05T06:26:56.483Z,77755.98
2019-05-05T06:29:25.743Z,77690.31
2019-05-05T06:31:55.390Z,77496.34
2019-05-05T06:34:25.038Z,77487.25
2019-05-05T06:36:54.532Z,77475.13
2019-05-05T06:39:24.204Z,77497.35
2019-05-05T06:42:00.427Z,77412.49
2019-05-05T06:44:35.711Z,77451.89
2019-05-05T06:47:25.451Z,77365.01
2019-05-05T06:49:56.602Z,77329.66
2019-05-05T06:52:26.857Z,77495.33
2019-05-05T06:54:56.149Z,77969.17
2019-05-05T06:57:27.538Z,78174.28
2019-05-05T06:59:57.185Z,78267.24
2019-05-05T07:02:27.138Z,78267.24
2019-05-05T07:04:57.365Z,78356.17
2019-05-05T07:07:26.956Z,78472.38
2019-05-05T07:09:56.540Z,78513.80
2019-05-05T07:12:25.792Z,78521.89
2019-05-05T07:14:55.395Z,78478.44
2019-05-05T07:17:24.663Z,78483.48
2019-05-05T07:19:54.462Z,78453.17
2019-05-05T07:22:24.443Z,78446.09
2019-05-05T07:24:54.605Z,78440.03
2019-05-05T07:27:24.444Z,78434.98
2019-05-05T07:29:54.247Z,78431.95
2019-05-05T07:32:24.707Z,78431.95
2019-05-05T07:35:06.285Z,78470.35
2019-05-05T07:37:35.529Z,78490.56
2019-05-05T07:40:05.965Z,78519.87
2019-05-05T07:42:35.598Z,78501.68
2019-05-05T07:45:18.977Z,78458.23
2019-05-05T07:47:36.664Z,78469.34
2019-05-05T07:50:06.527Z,78485.51
2019-05-05T07:52:36.095Z,78470.35
2019-05-05T07:55:07.212Z,78414.77
2019-05-05T07:57:37.004Z,78348.08
2019-05-05T08:00:07.097Z,78238.95
2019-05-05T08:02:39.424Z,78171.25
2019-05-05T08:05:09.125Z,78163.17
2019-05-05T08:07:38.746Z,78189.44
2019-05-05T08:10:09.911Z,78166.20
2019-05-05T08:12:39.489Z,78350.10
2019-05-05T08:15:09.463Z,78463.28
2019-05-05T08:18:05.028Z,78499.66
2019-05-05T08:20:40.674Z,78549.17
2019-05-05T08:23:29.161Z,78539.06
2019-05-05T08:25:58.508Z,78530.98
2019-05-05T08:28:39.357Z,78538.06
2019-05-05T08:31:27.544Z,78539.06
2019-05-05T08:33:58.668Z,78530.98
2019-05-05T08:36:28.304Z,78548.16
2019-05-05T08:38:57.532Z,78526.94
2019-05-05T08:41:26.805Z,78486.52
2019-05-05T08:43:56.415Z,78447.11
2019-05-05T08:46:25.894Z,78440.03
2019-05-05T08:48:55.320Z,78424.88
2019-05-05T08:51:24.781Z,78384.46
2019-05-05T08:53:54.724Z,78364.25
2019-05-05T08:56:25.644Z,78314.73
2019-05-05T08:58:56.399Z,78346.06
2019-05-05T09:01:25.677Z,78317.77
2019-05-05T09:03:55.344Z,78313.73
2019-05-05T09:06:24.614Z,78322.82
2019-05-05T09:08:54.876Z,78360.20
2019-05-05T09:11:24.237Z,78373.34
2019-05-05T09:13:55.275Z,78429.94
2019-05-05T09:16:25.190Z,78477.42
2019-05-05T09:19:00.910Z,78438.02
2019-05-05T09:21:30.157Z,78386.48
2019-05-05T09:24:03.218Z,78374.36
2019-05-05T09:26:57.830Z,78405.68
2019-05-05T09:29:30.082Z,78403.66
2019-05-05T09:31:59.417Z,78399.62
2019-05-05T09:34:29.165Z,78300.59
2019-05-05T09:37:00.466Z,78238.95
2019-05-05T09:39:29.754Z,78181.36
2019-05-05T09:41:59.030Z,78177.31
2019-05-05T09:44:29.728Z,78177.31
2019-05-05T09:46:59.987Z,78229.86
2019-05-05T09:49:29.457Z,78191.46
2019-05-05T09:52:00.581Z,78202.58
2019-05-05T09:54:31.424Z,78270.27
2019-05-05T09:57:00.750Z,78298.57
2019-05-05T09:59:30.354Z,78300.59
2019-05-05T10:01:59.612Z,78320.80
2019-05-05T10:04:31.821Z,78375.36
2019-05-05T10:07:01.100Z,78405.68
2019-05-05T10:09:34.301Z,78399.62
2019-05-05T10:12:04.754Z,78332.92
2019-05-05T10:14:34.661Z,78229.86
2019-05-05T10:17:04.929Z,78137.91
2019-05-05T10:19:35.681Z,78165.19
2019-05-05T10:22:04.919Z,78178.33
2019-05-05T10:24:44.850Z,78186.41
2019-05-05T10:27:14.521Z,78241.98
2019-05-05T10:29:44.250Z,78200.55
2019-05-05T10:32:14.581Z,78230.87
2019-05-05T10:34:45.769Z,78228.84
2019-05-05T10:37:15.373Z,78270.27
2019-05-05T10:39:49.890Z,78264.22
2019-05-05T10:42:22.072Z,78249.06
2019-05-05T10:44:51.316Z,78211.67
2019-05-05T10:47:20.593Z,78166.20
2019-05-05T10:49:50.258Z,78177.31
2019-05-05T10:52:19.983Z,78222.78
2019-05-05T10:54:49.225Z,78186.41
2019-05-05T10:57:19.185Z,78080.31
2019-05-05T10:59:49.926Z,78136.90
2019-05-05T11:02:20.286Z,78188.43
2019-05-05T11:04:50.543Z,78159.13
2019-05-05T11:07:20.107Z,78191.46
2019-05-05T11:09:51.393Z,78220.77
2019-05-05T11:12:20.671Z,78251.08
2019-05-05T11:14:51.284Z,78193.48
2019-05-05T11:17:20.604Z,78173.27
2019-05-05T11:19:50.312Z,78095.47
2019-05-05T11:22:20.062Z,78093.45
2019-05-05T11:24:58.180Z,78112.65
2019-05-05T11:27:24.139Z,78212.68
2019-05-05T11:30:18.086Z,78291.50
2019-05-05T11:33:06.305Z,78351.11
2019-05-05T11:36:04.499Z,78384.46
2019-05-05T11:38:34.563Z,78390.52
2019-05-05T11:41:05.043Z,78372.33
2019-05-05T11:43:34.797Z,78302.61
2019-05-05T11:46:04.130Z,78231.88
2019-05-05T11:48:34.496Z,78215.71
2019-05-05T11:51:04.532Z,78240.97
2019-05-05T11:53:34.247Z,78225.81
2019-05-05T11:56:04.315Z,78219.75
2019-05-05T11:58:35.319Z,78172.27
2019-05-05T12:01:04.570Z,78148.02
2019-05-05T12:03:37.452Z,78148.02
2019-05-05T12:06:05.588Z,78116.69
2019-05-05T12:08:35.224Z,78063.14
2019-05-05T12:11:06.221Z,78120.73
2019-05-05T12:13:35.548Z,78117.70
2019-05-05T12:16:09.420Z,78152.05
2019-05-05T12:18:39.155Z,78169.23
2019-05-05T12:21:09.543Z,78236.93
2019-05-05T12:23:38.890Z,78284.42
2019-05-05T12:26:30.814Z,78348.08
2019-05-05T12:29:17.023Z,78420.84
2019-05-05T12:31:48.932Z,78464.28
2019-05-05T12:34:19.287Z,78478.44
2019-05-05T12:36:49.042Z,78477.42
2019-05-05T12:39:18.638Z,78493.59
2019-05-05T12:41:49.291Z,78481.47
2019-05-05T12:44:27.061Z,78447.11
2019-05-05T12:47:17.027Z,78395.58
2019-05-05T12:49:48.570Z,78337.98
2019-05-05T12:52:17.797Z,78340.00
2019-05-05T12:54:47.043Z,78323.83
2019-05-05T12:57:17.312Z,78306.66
2019-05-05T12:59:47.993Z,78301.60
2019-05-05T13:02:17.671Z,78254.11
2019-05-05T13:04:47.276Z,78230.87
2019-05-05T13:07:16.683Z,78225.81
2019-05-05T13:09:45.928Z,78206.62
2019-05-05T13:12:16.426Z,78232.89
2019-05-05T13:14:45.672Z,78171.25
2019-05-05T13:17:14.965Z,78113.66
2019-05-05T13:20:09.008Z,78182.37
2019-05-05T13:22:53.998Z,78282.40
2019-05-05T13:25:55.205Z,78275.33
2019-05-05T13:28:16.458Z,78420.84
2019-05-05T13:30:48.792Z,78468.33
2019-05-05T13:33:18.044Z,78516.84
2019-05-05T13:35:47.432Z,78563.32
2019-05-05T13:38:17.016Z,78637.09
2019-05-05T13:40:46.242Z,78670.44
2019-05-05T13:43:15.530Z,78657.30
2019-05-05T13:45:59.694Z,78627.99
2019-05-05T13:48:29.377Z,78579.48
2019-05-05T13:51:04.137Z,78518.86
2019-05-05T13:53:34.246Z,78447.11
2019-05-05T13:56:11.496Z,78356.17
2019-05-05T13:58:35.364Z,78322.82
2019-05-05T14:01:04.634Z,78232.89
2019-05-05T14:03:35.983Z,78172.27
2019-05-05T14:06:06.189Z,78135.89
2019-05-05T14:08:36.434Z,78125.78
2019-05-05T14:11:06.405Z,78207.63
2019-05-05T14:13:35.877Z,78239.96
2019-05-05T14:16:05.136Z,78286.45
2019-05-05T14:18:34.375Z,78335.95
2019-05-05T14:21:04.005Z,78361.22
2019-05-05T14:23:43.839Z,78359.20
2019-05-05T14:26:25.062Z,78384.46
2019-05-05T14:28:46.541Z,78355.16
2019-05-05T14:31:18.121Z,78324.84
2019-05-05T14:33:54.104Z,78278.36
2019-05-05T14:36:33.516Z,78266.23
2019-05-05T14:39:04.243Z,78310.70
2019-05-05T14:41:35.228Z,78321.81
2019-05-05T14:44:05.007Z,78336.97
2019-05-05T14:46:34.490Z,78344.04
2019-05-05T14:49:06.599Z,78301.60
2019-05-05T14:51:37.644Z,78257.14
2019-05-05T14:54:06.983Z,78231.88
2019-05-05T14:56:36.959Z,78187.42
2019-05-05T14:59:06.544Z,78204.59
2019-05-05T15:01:36.285Z,78163.17
2019-05-05T15:04:09.325Z,78149.02
2019-05-05T15:07:03.770Z,78163.17
2019-05-05T15:09:54.633Z,78223.80
2019-05-05T15:12:37.570Z,78259.16
2019-05-05T15:15:07.614Z,78288.47
2019-05-05T15:17:36.989Z,78318.78
2019-05-05T15:20:07.908Z,78343.03
2019-05-05T15:22:37.190Z,78302.61
2019-05-05T15:25:06.796Z,78234.91
2019-05-05T15:27:37.771Z,78197.52
2019-05-05T15:30:09.065Z,78204.59
2019-05-05T15:32:38.308Z,78230.87
2019-05-05T15:35:07.907Z,78255.12
2019-05-05T15:37:38.747Z,78274.31
2019-05-05T15:40:09.708Z,78274.31
2019-05-05T15:42:39.215Z,78278.36
2019-05-05T15:45:09.006Z,78296.55
2019-05-05T15:47:38.323Z,78331.91
2019-05-05T15:50:08.054Z,78301.60
2019-05-05T15:52:38.070Z,78279.38
2019-05-05T15:55:07.518Z,78256.13
2019-05-05T15:57:36.772Z,78242.99
2019-05-05T16:00:07.671Z,78302.61
2019-05-05T16:02:38.559Z,78290.48
2019-05-05T16:05:09.478Z,78291.50
2019-05-05T16:07:38.743Z,78340.00
2019-05-05T16:10:09.377Z,78392.55
2019-05-05T16:12:39.718Z,78404.67
2019-05-05T16:15:24.231Z,78411.74
2019-05-05T16:18:17.826Z,78409.72
2019-05-05T16:20:54.522Z,78394.56
2019-05-05T16:23:35.604Z,78389.52
2019-05-05T16:26:03.750Z,78362.23
2019-05-05T16:28:34.349Z,78331.91
2019-05-05T16:31:05.464Z,78288.47
2019-05-05T16:33:34.899Z,78299.58
2019-05-05T16:36:06.238Z,78337.98
2019-05-05T16:38:35.307Z,78334.95
2019-05-05T16:41:06.514Z,78329.89
2019-05-05T16:43:35.759Z,78349.09
2019-05-05T16:46:05.070Z,78373.34
2019-05-05T16:48:34.685Z,78404.67
2019-05-05T16:51:06.318Z,78427.91
2019-05-05T16:53:36.463Z,78448.13
2019-05-05T16:56:08.003Z,78474.39
2019-05-05T16:58:38.376Z,78476.41
2019-05-05T17:01:11.751Z,78467.32
2019-05-05T17:03:45.364Z,78480.45
2019-05-05T17:06:14.012Z,78503.70
2019-05-05T17:08:44.403Z,78512.80
2019-05-05T17:11:15.095Z,78504.70
2019-05-05T17:14:09.907Z,78497.63
2019-05-05T17:17:05.955Z,78495.61
2019-05-05T17:19:45.664Z,78495.61
2019-05-05T17:22:19.357Z,78472.38
2019-05-05T17:24:49.250Z,78478.44
2019-05-05T17:27:18.998Z,78484.50
2019-05-05T17:29:48.382Z,78478.44
2019-05-05T17:32:18.019Z,78461.26
2019-05-05T17:34:47.297Z,78425.89
2019-05-05T17:37:16.981Z,78428.92
2019-05-05T17:39:54.891Z,78440.03
2019-05-05T17:42:46.894Z,78449.13
2019-05-05T17:45:30.202Z,78450.14
2019-05-05T17:48:06.030Z,78502.69
2019-05-05T17:50:53.622Z,78535.02
2019-05-05T17:53:48.046Z,78567.36
2019-05-05T17:56:19.270Z,78578.48
2019-05-05T17:58:50.016Z,78603.74
2019-05-05T18:01:20.686Z,78621.93
2019-05-05T18:03:51.137Z,78626.98
2019-05-05T18:06:40.532Z,78636.08
2019-05-05T18:09:16.323Z,78648.20
2019-05-05T18:12:06.083Z,78633.05
2019-05-05T18:14:36.243Z,78651.23
2019-05-05T18:17:05.621Z,78674.48
2019-05-05T18:19:35.401Z,78657.30
2019-05-05T18:22:04.670Z,78669.42
2019-05-05T18:24:35.140Z,78687.62
2019-05-05T18:27:06.647Z,78675.48
2019-05-05T18:29:37.730Z,78660.33
2019-05-05T18:32:07.422Z,78666.39
2019-05-05T18:34:36.731Z,78670.44
2019-05-05T18:37:06.608Z,78651.23
2019-05-05T18:39:36.125Z,78667.41
2019-05-05T18:42:13.988Z,78667.41
2019-05-05T18:44:45.834Z,78679.53
2019-05-05T18:47:19.672Z,78690.65
2019-05-05T18:49:49.038Z,78691.66
2019-05-05T18:52:18.300Z,78686.61
2019-05-05T18:54:49.540Z,78688.63
2019-05-05T18:57:19.026Z,78699.74
2019-05-05T18:59:48.273Z,78721.98
2019-05-05T19:02:37.886Z,78756.34
2019-05-05T19:05:35.628Z,78778.56
2019-05-05T19:08:10.696Z,78822.02
2019-05-05T19:10:40.164Z,78853.35
2019-05-05T19:13:09.766Z,78868.52
2019-05-05T19:15:39.355Z,78865.48
2019-05-05T19:18:08.879Z,78877.61
2019-05-05T19:21:08.180Z,78850.32
2019-05-05T19:23:37.639Z,78857.39
2019-05-05T19:26:07.690Z,78864.47
2019-05-05T19:28:44.336Z,78867.50
2019-05-05T19:31:09.116Z,78871.55
2019-05-05T19:33:38.743Z,78871.55
2019-05-05T19:36:09.916Z,78854.36
2019-05-05T19:38:39.235Z,78837.18
2019-05-05T19:41:08.477Z,78870.53
2019-05-05T19:43:54.702Z,78883.67
2019-05-05T19:46:29.766Z,78892.77
2019-05-05T19:49:14.949Z,78919.05
2019-05-05T19:51:44.801Z,78915.00
2019-05-05T19:54:15.157Z,78925.11
2019-05-05T19:56:46.143Z,78925.11
2019-05-05T19:59:15.488Z,78917.02
2019-05-05T20:01:45.157Z,78924.09
2019-05-05T20:04:14.834Z,78940.27
2019-05-05T20:06:45.988Z,78957.45
2019-05-05T20:09:15.716Z,78953.41
2019-05-05T20:11:46.835Z,78949.36
2019-05-05T20:14:16.061Z,78933.19
2019-05-05T20:17:04.740Z,78926.12
2019-05-05T20:19:38.285Z,78913.98
2019-05-05T20:22:07.898Z,78909.95
2019-05-05T20:24:37.642Z,78889.73
2019-05-05T20:27:08.129Z,78891.75
2019-05-05T20:29:37.749Z,78877.61
2019-05-05T20:32:07.336Z,78880.64
2019-05-05T20:34:45.898Z,78873.56
2019-05-05T20:37:17.637Z,78880.64
2019-05-05T20:39:46.903Z,78900.84
2019-05-05T20:42:16.591Z,78919.05
2019-05-05T20:44:46.569Z,78928.14
2019-05-05T20:47:15.827Z,78924.09
2019-05-05T20:49:45.103Z,78912.98
2019-05-05T20:52:14.670Z,78920.05
2019-05-05T20:54:44.184Z,78916.02
2019-05-05T20:57:13.890Z,78938.24
2019-05-05T20:59:44.538Z,78932.18
2019-05-05T21:02:14.166Z,78967.55
2019-05-05T21:04:44.587Z,78971.59
2019-05-05T21:07:14.282Z,78976.65
2019-05-05T21:09:43.982Z,78978.67
2019-05-05T21:12:13.892Z,78993.83
2019-05-05T21:14:47.166Z,78985.74
2019-05-05T21:17:16.479Z,78999.89
2019-05-05T21:19:45.716Z,78997.88
2019-05-05T21:22:46.329Z,78993.83
2019-05-05T21:25:24.576Z,79002.92
2019-05-05T21:27:53.853Z,79008.98
2019-05-05T21:30:23.837Z,79024.15
2019-05-05T21:32:54.689Z,79042.34
2019-05-05T21:35:24.212Z,79063.56
2019-05-05T21:37:55.256Z,79080.74
2019-05-05T21:40:25.483Z,79097.92
2019-05-05T21:42:55.081Z,79101.97
2019-05-05T21:45:25.683Z,79110.05
2019-05-05T21:47:55.349Z,79113.09
2019-05-05T21:50:33.904Z,79124.20
2019-05-05T21:53:28.907Z,79127.23
2019-05-05T21:56:17.074Z,79125.22
2019-05-05T21:58:46.550Z,79117.13
2019-05-05T22:01:18.302Z,79107.02
2019-05-05T22:03:47.771Z,79110.05
2019-05-05T22:06:17.468Z,79121.17
2019-05-05T22:08:46.732Z,79124.20
2019-05-05T22:11:16.324Z,79131.28
2019-05-05T22:13:45.609Z,79129.25
2019-05-05T22:16:14.865Z,79111.06
2019-05-05T22:18:44.730Z,79088.83
2019-05-05T22:21:30.189Z,79087.82
2019-05-05T22:24:16.444Z,79070.64
2019-05-05T22:26:45.914Z,79079.73
2019-05-05T22:29:17.020Z,79082.77
2019-05-05T22:31:47.249Z,79067.61
2019-05-05T22:34:16.774Z,79061.55
2019-05-05T22:36:46.074Z,79052.45
2019-05-05T22:39:17.081Z,79064.58
2019-05-05T22:41:46.708Z,79052.45
2019-05-05T22:44:15.981Z,79066.59
2019-05-05T22:46:45.245Z,79067.61
2019-05-05T22:49:15.330Z,79078.72
2019-05-05T22:51:46.071Z,79089.84
2019-05-05T22:54:15.815Z,79105.00
2019-05-05T22:56:45.383Z,79129.25
2019-05-05T22:59:14.818Z,79145.42
2019-05-05T23:01:44.080Z,79156.55
2019-05-05T23:04:35.111Z,79149.47
2019-05-05T23:07:08.454Z,79144.42
2019-05-05T23:09:39.685Z,79148.45
2019-05-05T23:12:09.239Z,79170.70
2019-05-05T23:14:38.485Z,79178.78
2019-05-05T23:17:30.173Z,79195.96
2019-05-05T23:20:07.465Z,79201.02
2019-05-05T23:22:49.827Z,79203.03
2019-05-05T23:25:26.355Z,79195.96
2019-05-05T23:27:55.982Z,79193.94
2019-05-05T23:30:38.645Z,79185.86
2019-05-05T23:32:57.019Z,79193.94
2019-05-05T23:35:27.956Z,79204.05
2019-05-05T23:37:57.480Z,79215.16
2019-05-05T23:40:28.525Z,79220.22
2019-05-05T23:42:57.788Z,79216.17
2019-05-05T23:45:27.492Z,79239.42
2019-05-05T23:47:57.446Z,79258.63
2019-05-05T23:50:27.055Z,79288.95
2019-05-05T23:52:57.027Z,79273.78
2019-05-05T23:55:27.288Z,79296.02
2019-05-05T23:57:56.566Z,79304.11
